Time;durP1;ratioP1;P1;durP2;ratioP2;P2;SDS_P1;SDS_P2;PMS_P1;PMS_P2;Temp;Humidity;BMP_temperature;BMP_pressure;BME280_temperature;BME280_humidity;BME280_pressure;Samples;Min_cycle;Max_cycle;Signal;HPM_P1;HPM_P2
2022/12/08 00:01:41;;;;;;;1.47;1.37;;;3.40;97.30;;;;;;5033376;28;20270;-87
2022/12/08 00:04:08;;;;;;;1.13;1.03;;;3.40;97.30;;;;;;5024891;28;20203;-87
2022/12/08 00:09:38;;;;;;;3.53;1.40;;;3.40;97.30;;;;;;5044847;28;20468;-88
2022/12/08 00:12:04;;;;;;;0.93;0.83;;;3.40;97.30;;;;;;5038567;28;20811;-87
2022/12/08 00:14:38;;;;;;;3.07;2.87;;;3.40;97.30;;;;;;5034063;28;20505;-87
2022/12/08 00:17:05;;;;;;;2.90;2.40;;;3.40;97.30;;;;;;5024822;28;20678;-87
2022/12/08 00:19:31;;;;;;;4.00;3.80;;;3.40;97.30;;;;;;5034468;28;20506;-86
2022/12/08 00:21:57;;;;;;;2.23;2.03;;;3.40;97.30;;;;;;5033812;28;20422;-86
2022/12/08 00:24:25;;;;;;;2.33;2.13;;;3.40;97.30;;;;;;5030444;28;20454;-87
2022/12/08 00:26:51;;;;;;;15.70;1.50;;;3.40;97.30;;;;;;5029493;28;20469;-87
2022/12/08 00:29:17;;;;;;;5.20;3.60;;;3.40;97.30;;;;;;5033020;28;20426;-86
2022/12/08 00:31:42;;;;;;;16.10;2.13;;;3.30;97.30;;;;;;5020359;28;20514;-87
2022/12/08 00:34:08;;;;;;;1.30;1.20;;;3.30;97.30;;;;;;5051854;28;20461;-88
2022/12/08 00:36:34;;;;;;;1.60;1.50;;;3.40;97.30;;;;;;5020658;28;20200;-87
2022/12/08 00:38:59;;;;;;;1.33;1.23;;;3.40;97.30;;;;;;5028785;28;20188;-88
2022/12/08 00:44:14;;;;;;;3.40;3.20;;;3.30;97.30;;;;;;5047601;28;20209;-87
2022/12/08 00:46:40;;;;;;;1.20;1.10;;;3.30;97.30;;;;;;5037369;28;20462;-87
2022/12/08 00:49:06;;;;;;;7.30;2.23;;;3.30;97.30;;;;;;5037496;28;20410;-87
2022/12/08 00:51:32;;;;;;;1.57;1.40;;;3.30;97.30;;;;;;5037495;28;20793;-87
2022/12/08 00:53:58;;;;;;;2.50;1.67;;;3.30;97.30;;;;;;5037675;28;20187;-87
2022/12/08 00:56:24;;;;;;;1.40;1.30;;;3.30;97.30;;;;;;5055331;28;20452;-87
2022/12/08 00:58:50;;;;;;;1.30;1.20;;;3.20;97.30;;;;;;5055328;28;20489;-87
2022/12/08 01:01:15;;;;;;;5.47;2.70;;;3.20;97.30;;;;;;5037208;28;20190;-88
2022/12/08 01:03:41;;;;;;;3.53;3.33;;;3.20;97.30;;;;;;5034520;28;20759;-88
2022/12/08 01:06:07;;;;;;;3.70;1.53;;;3.20;97.30;;;;;;5027382;28;20202;-88
2022/12/08 01:08:35;;;;;;;2.27;2.07;;;3.20;97.30;;;;;;5034633;28;20426;-88
2022/12/08 01:11:10;;;;;;;1.53;1.40;;;3.20;97.30;;;;;;5017666;28;20426;-87
2022/12/08 01:13:36;;;;;;;1.77;1.70;;;3.20;97.30;;;;;;5034990;28;20421;-87
2022/12/08 01:16:02;;;;;;;2.40;1.77;;;3.20;97.30;;;;;;5037291;28;20450;-86
2022/12/08 01:18:28;;;;;;;1.97;1.87;;;3.20;97.30;;;;;;5037400;28;20526;-87
2022/12/08 01:20:53;;;;;;;1.40;1.30;;;3.20;97.30;;;;;;5028326;28;20646;-87
2022/12/08 01:23:19;;;;;;;1.67;1.20;;;3.10;97.30;;;;;;5036648;28;20204;-87
2022/12/08 01:25:44;;;;;;;3.27;1.70;;;3.10;97.30;;;;;;5036940;28;20214;-87
2022/12/08 01:28:10;;;;;;;2.60;2.40;;;3.10;97.30;;;;;;5036844;28;20179;-86
2022/12/08 01:30:39;;;;;;;1.80;1.53;;;3.10;97.30;;;;;;5036852;28;20891;-88
2022/12/08 01:33:05;;;;;;;1.67;1.57;;;3.10;97.30;;;;;;5032192;28;20210;-87
2022/12/08 01:35:32;;;;;;;1.77;1.67;;;3.10;97.30;;;;;;5028371;28;20434;-87
2022/12/08 01:37:58;;;;;;;1.73;1.63;;;3.10;97.30;;;;;;5041353;28;20191;-87
2022/12/08 01:40:23;;;;;;;1.83;1.60;;;3.10;97.30;;;;;;5025529;28;20476;-87
2022/12/08 01:42:49;;;;;;;2.17;1.87;;;3.10;97.30;;;;;;5035130;28;20220;-87
2022/12/08 01:45:24;;;;;;;3.43;2.67;;;3.10;97.30;;;;;;5036426;28;20685;-87
2022/12/08 01:47:54;;;;;;;1.30;1.20;;;3.10;97.30;;;;;;5035742;28;20199;-87
2022/12/08 01:50:21;;;;;;;3.23;2.73;;;3.10;97.30;;;;;;5035216;28;20422;-87
2022/12/08 01:52:50;;;;;;;2.93;1.40;;;3.10;97.30;;;;;;5035785;28;20418;-87
2022/12/08 01:55:18;;;;;;;3.50;2.70;;;3.10;97.30;;;;;;5035473;28;20422;-88
2022/12/08 01:57:49;;;;;;;2.30;1.73;;;3.10;97.30;;;;;;5020678;28;20435;-87
2022/12/08 02:00:18;;;;;;;2.80;2.30;;;3.10;97.30;;;;;;5016363;28;20411;-85
2022/12/08 02:03:07;;;;;;;3.67;2.73;;;3.10;97.30;;;;;;5016598;28;20415;-87
2022/12/08 02:05:35;;;;;;;21.63;1.77;;;3.10;97.30;;;;;;5029658;28;20414;-88
2022/12/08 02:08:05;;;;;;;2.20;1.40;;;3.00;97.30;;;;;;5034322;28;20498;-87
2022/12/08 02:10:34;;;;;;;3.23;3.07;;;3.00;97.30;;;;;;5035652;28;20408;-87
2022/12/08 02:13:01;;;;;;;3.20;3.00;;;3.00;97.30;;;;;;5036040;28;20425;-87
2022/12/08 02:15:36;;;;;;;3.53;3.33;;;3.00;97.30;;;;;;5034515;28;20501;-87
2022/12/08 02:18:31;;;;;;;8.93;2.60;;;3.00;97.30;;;;;;5025366;28;20425;-87
2022/12/08 02:21:10;;;;;;;2.90;1.93;;;3.00;97.30;;;;;;5016244;28;20416;-86
2022/12/08 02:23:52;;;;;;;1.83;1.73;;;3.00;97.30;;;;;;5030503;28;20461;-87
2022/12/08 02:26:48;;;;;;;3.83;3.00;;;3.00;97.30;;;;;;5035737;28;20458;-87
2022/12/08 02:29:29;;;;;;;2.33;2.17;;;3.00;97.30;;;;;;5042809;28;20975;-86
2022/12/08 02:32:17;;;;;;;1.23;1.20;;;3.10;97.30;;;;;;5022868;28;20928;-87
2022/12/08 02:34:51;;;;;;;2.50;1.47;;;3.10;97.30;;;;;;5029482;28;20427;-88
2022/12/08 02:37:40;;;;;;;2.33;2.17;;;3.10;97.30;;;;;;5036170;28;20441;-87
2022/12/08 02:40:17;;;;;;;3.37;1.37;;;3.10;97.30;;;;;;5011095;28;20410;-87
2022/12/08 02:42:51;;;;;;;1.30;1.20;;;3.10;97.30;;;;;;5036088;28;20418;-88
2022/12/08 02:45:33;;;;;;;1.70;1.60;;;3.10;97.30;;;;;;5028201;28;20929;-87
2022/12/08 02:47:59;;;;;;;1.20;1.10;;;3.10;97.30;;;;;;5031867;28;20421;-87
2022/12/08 02:50:26;;;;;;;0.90;0.90;;;3.20;97.30;;;;;;5034731;28;20951;-87
2022/12/08 02:52:51;;;;;;;2.07;1.93;;;3.10;97.30;;;;;;5034155;28;20976;-87
2022/12/08 02:55:59;;;;;;;2.40;1.63;;;3.20;97.30;;;;;;5033936;28;20493;-87
2022/12/08 02:58:51;;;;;;;2.73;2.03;;;3.10;97.30;;;;;;4995367;28;20191;-87
2022/12/08 03:01:47;;;;;;;3.10;1.40;;;3.20;97.30;;;;;;5034389;28;20418;-86
2022/12/08 03:04:41;;;;;;;1.10;1.00;;;3.10;97.30;;;;;;5037445;28;20987;-86
2022/12/08 03:07:39;;;;;;;1.83;1.77;;;3.20;97.30;;;;;;5033488;28;20463;-86
2022/12/08 03:10:11;;;;;;;1.03;0.93;;;3.20;97.30;;;;;;5026957;28;20424;-87
2022/12/08 03:12:42;;;;;;;3.63;3.17;;;3.20;97.30;;;;;;5030248;28;20419;-86
2022/12/08 03:15:13;;;;;;;1.50;1.40;;;3.20;97.30;;;;;;5027243;28;20854;-86
2022/12/08 03:17:43;;;;;;;1.50;1.40;;;3.10;97.30;;;;;;5034836;28;20469;-86
2022/12/08 03:20:13;;;;;;;1.57;1.47;;;3.10;97.30;;;;;;5033832;28;20528;-87
2022/12/08 03:22:40;;;;;;;1.63;1.53;;;3.10;97.30;;;;;;5028156;28;20427;-87
2022/12/08 03:25:08;;;;;;;1.07;1.03;;;3.10;97.30;;;;;;5028984;28;20506;-87
2022/12/08 03:27:34;;;;;;;2.83;1.83;;;3.10;97.30;;;;;;5052375;28;20557;-87
2022/12/08 03:30:00;;;;;;;1.67;1.57;;;3.10;97.30;;;;;;5033035;28;20505;-88
2022/12/08 03:32:47;;;;;;;1.37;1.10;;;3.10;97.30;;;;;;5014907;28;20184;-88
2022/12/08 03:35:16;;;;;;;4.40;3.00;;;3.10;97.30;;;;;;5028132;28;20434;-87
2022/12/08 03:37:42;;;;;;;4.13;1.97;;;3.10;97.30;;;;;;5026169;28;20554;-86
2022/12/08 03:40:12;;;;;;;3.43;1.70;;;3.10;97.30;;;;;;5029982;28;20426;-87
2022/12/08 03:42:37;;;;;;;1.10;1.00;;;3.20;97.30;;;;;;5026088;28;20436;-87
2022/12/08 03:45:04;;;;;;;5.50;2.37;;;3.10;97.30;;;;;;5034649;28;20939;-87
2022/12/08 03:47:29;;;;;;;2.97;2.03;;;3.20;97.30;;;;;;5049444;28;20571;-88
2022/12/08 03:49:55;;;;;;;4.20;2.20;;;3.10;97.30;;;;;;5046538;28;20425;-87
2022/12/08 03:52:20;;;;;;;2.07;1.93;;;3.10;97.30;;;;;;5043743;28;20270;-87
2022/12/08 03:54:46;;;;;;;2.10;1.77;;;3.10;97.30;;;;;;5034305;28;20590;-87
2022/12/08 03:57:12;;;;;;;2.17;2.00;;;3.10;97.30;;;;;;5034296;28;20203;-86
2022/12/08 03:59:37;;;;;;;3.63;2.37;;;3.10;97.30;;;;;;5041572;28;20181;-86
2022/12/08 04:02:03;;;;;;;1.37;1.27;;;3.00;97.30;;;;;;5031717;28;20194;-87
2022/12/08 04:04:28;;;;;;;1.10;1.00;;;3.00;97.30;;;;;;5022284;28;20586;-87
2022/12/08 04:06:54;;;;;;;20.60;1.87;;;3.00;97.30;;;;;;5027749;28;20700;-87
2022/12/08 04:09:19;;;;;;;25.47;2.77;;;3.00;97.30;;;;;;5026227;28;20182;-87
2022/12/08 04:11:45;;;;;;;1.40;1.30;;;2.90;97.30;;;;;;5020112;28;20176;-87
2022/12/08 04:14:10;;;;;;;2.17;1.90;;;2.90;97.30;;;;;;5034168;28;20180;-86
2022/12/08 04:16:36;;;;;;;2.03;1.87;;;2.90;97.30;;;;;;5020668;28;20203;-87
2022/12/08 04:19:01;;;;;;;7.70;2.70;;;2.90;97.30;;;;;;5034109;28;20214;-87
2022/12/08 04:21:27;;;;;;;1.73;1.63;;;2.90;97.30;;;;;;5034091;28;20709;-87
2022/12/08 04:23:53;;;;;;;1.40;1.30;;;2.90;97.30;;;;;;5020804;28;20200;-86
2022/12/08 04:26:18;;;;;;;1.90;1.80;;;2.90;97.30;;;;;;5023398;28;20239;-87
2022/12/08 04:28:44;;;;;;;1.30;1.20;;;2.90;97.30;;;;;;5027338;28;20225;-87
2022/12/08 04:31:09;;;;;;;2.90;1.17;;;2.80;97.30;;;;;;5026924;28;20188;-87
2022/12/08 04:33:35;;;;;;;1.10;1.00;;;2.80;97.30;;;;;;5014196;28;20546;-89
2022/12/08 04:36:02;;;;;;;2.50;1.73;;;2.80;97.30;;;;;;5013860;28;20200;-87
2022/12/08 04:38:28;;;;;;;11.90;2.83;;;2.80;97.30;;;;;;5011413;28;20440;-87
2022/12/08 04:40:54;;;;;;;1.13;1.00;;;2.80;97.30;;;;;;5020894;28;20426;-87
2022/12/08 04:43:19;;;;;;;3.80;2.43;;;2.80;97.30;;;;;;5033315;28;20199;-88
2022/12/08 04:45:45;;;;;;;3.07;2.07;;;2.80;97.30;;;;;;5027491;28;20242;-86
2022/12/08 04:48:12;;;;;;;1.77;1.50;;;2.80;97.30;;;;;;5027674;28;20221;-88
2022/12/08 04:50:39;;;;;;;2.30;2.10;;;2.80;97.30;;;;;;5038619;28;20528;-87
2022/12/08 04:53:05;;;;;;;1.57;1.47;;;2.80;97.30;;;;;;5043872;28;20793;-87
2022/12/08 04:55:30;;;;;;;2.50;2.40;;;2.90;97.30;;;;;;5021118;28;20428;-85
2022/12/08 04:57:56;;;;;;;7.27;2.60;;;2.90;97.30;;;;;;5033915;28;20183;-87
2022/12/08 05:00:21;;;;;;;2.50;1.37;;;2.90;97.30;;;;;;5033254;28;20736;-86
2022/12/08 05:02:47;;;;;;;1.30;1.20;;;2.90;97.30;;;;;;5021433;28;20238;-87
2022/12/08 05:05:12;;;;;;;4.03;2.43;;;2.90;97.30;;;;;;5032212;28;20642;-87
2022/12/08 05:07:38;;;;;;;2.27;1.70;;;3.00;97.30;;;;;;5021787;28;20223;-87
2022/12/08 05:10:04;;;;;;;2.87;2.20;;;3.00;97.30;;;;;;5049515;28;20190;-86
2022/12/08 05:12:29;;;;;;;2.70;2.20;;;3.00;97.30;;;;;;5021145;28;20184;-87
2022/12/08 05:14:55;;;;;;;1.70;1.60;;;3.00;97.30;;;;;;5015044;28;20419;-87
2022/12/08 05:17:21;;;;;;;2.57;2.37;;;3.00;97.30;;;;;;5026374;28;20730;-87
2022/12/08 05:19:46;;;;;;;2.97;2.67;;;3.00;97.30;;;;;;5027822;28;20663;-86
2022/12/08 05:22:12;;;;;;;1.70;1.60;;;3.00;97.30;;;;;;5043292;28;20192;-87
2022/12/08 05:24:37;;;;;;;1.10;1.00;;;3.00;97.30;;;;;;5038512;28;20287;-88
2022/12/08 05:27:03;;;;;;;2.20;2.00;;;3.00;97.30;;;;;;5030577;28;20236;-88
2022/12/08 05:29:29;;;;;;;2.60;2.40;;;3.00;97.30;;;;;;5031913;28;20180;-86
2022/12/08 05:31:54;;;;;;;2.57;2.37;;;3.00;97.30;;;;;;5030818;28;20274;-86
2022/12/08 05:34:20;;;;;;;1.63;1.53;;;3.00;97.30;;;;;;5030324;28;20310;-87
2022/12/08 05:36:45;;;;;;;1.53;1.43;;;3.00;97.30;;;;;;5032194;28;20683;-86
2022/12/08 05:39:12;;;;;;;1.20;1.10;;;3.00;97.30;;;;;;5044821;28;20761;-86
2022/12/08 05:41:38;;;;;;;1.40;1.30;;;3.00;97.30;;;;;;5026018;28;20191;-86
2022/12/08 05:45:26;;;;;;;4.20;3.03;;;3.00;97.30;;;;;;5107891;27;20331;-86
2022/12/08 05:47:52;;;;;;;1.37;1.27;;;3.00;97.30;;;;;;5108656;28;20419;-86
2022/12/08 05:50:18;;;;;;;1.93;1.83;;;3.00;97.30;;;;;;5100471;28;20869;-89
2022/12/08 05:52:43;;;;;;;1.53;1.43;;;3.00;97.30;;;;;;5099690;28;20412;-86
2022/12/08 05:55:09;;;;;;;1.83;1.73;;;3.00;97.30;;;;;;5088192;28;20186;-86
2022/12/08 05:57:34;;;;;;;1.43;1.33;;;3.00;97.30;;;;;;5088574;28;20660;-86
2022/12/08 06:00:00;;;;;;;2.67;1.60;;;3.10;97.30;;;;;;5087931;28;20545;-86
2022/12/08 06:06:14;;;;;;;1.40;1.30;;;3.00;97.30;;;;;;5094625;28;20188;-87
2022/12/08 06:08:39;;;;;;;1.97;1.87;;;3.10;97.30;;;;;;5091855;28;20816;-87
2022/12/08 06:11:05;;;;;;;2.23;2.03;;;3.10;97.30;;;;;;5087866;28;20413;-89
2022/12/08 06:13:30;;;;;;;2.63;2.43;;;3.10;97.30;;;;;;5100976;28;20208;-86
2022/12/08 06:16:03;;;;;;;2.37;1.80;;;3.00;97.30;;;;;;5087662;28;20190;-87
2022/12/08 06:18:28;;;;;;;3.23;3.13;;;3.00;97.30;;;;;;5087498;28;20178;-88
2022/12/08 06:21:04;;;;;;;5.13;3.07;;;3.00;97.30;;;;;;5087531;28;20428;-87
2022/12/08 06:23:30;;;;;;;2.73;2.17;;;3.00;97.30;;;;;;5085565;28;20620;-90
2022/12/08 06:26:03;;;;;;;2.90;1.87;;;3.00;97.30;;;;;;5082692;28;20408;-90
2022/12/08 06:28:30;;;;;;;4.97;1.53;;;3.00;97.30;;;;;;5094184;28;20738;-88
2022/12/08 06:30:56;;;;;;;3.87;3.07;;;3.00;97.30;;;;;;5085933;28;20417;-91
2022/12/08 06:33:27;;;;;;;9.83;2.17;;;3.00;97.30;;;;;;5081429;28;21033;-91
2022/12/08 06:39:29;;;;;;;5.03;2.87;;;2.90;97.30;;;;;;5088744;28;20412;-90
2022/12/08 06:45:19;;;;;;;3.50;1.30;;;2.90;97.30;;;;;;5095792;22;20566;-91
2022/12/08 06:52:09;;;;;;;1.83;1.40;;;2.80;97.30;;;;;;4980010;28;20421;-91
2022/12/08 06:54:49;;;;;;;2.30;1.93;;;2.80;97.30;;;;;;5113623;22;20496;-92
2022/12/08 06:57:30;;;;;;;5.43;1.73;;;2.80;97.30;;;;;;5078561;28;20420;-91
2022/12/08 07:00:29;;;;;;;9.43;3.43;;;2.80;97.30;;;;;;5060320;28;20437;-93
2022/12/08 07:03:29;;;;;;;4.70;2.70;;;2.70;97.30;;;;;;5062034;28;20441;-91
2022/12/08 07:05:58;;;;;;;2.60;2.40;;;2.70;97.30;;;;;;5085551;28;20429;-90
2022/12/08 07:08:49;;;;;;;1.73;1.63;;;2.70;97.30;;;;;;5079275;28;20444;-91
2022/12/08 07:14:59;;;;;;;2.97;2.77;;;2.70;97.30;;;;;;4987516;28;20434;-91
2022/12/08 07:18:18;;;;;;;;;;;;;;;;;;;;;
2022/12/08 07:21:27;;;;;;;3.07;2.33;;;2.70;97.30;;;;;;4977027;28;20441;-91
2022/12/08 07:27:20;;;;;;;2.30;1.90;;;2.70;97.30;;;;;;5044653;28;20397;-91
2022/12/08 07:29:48;;;;;;;1.20;1.10;;;2.70;97.30;;;;;;5037012;28;20422;-91
2022/12/08 07:33:09;;;;;;;7.60;7.07;;;2.80;97.30;;;;;;5036231;28;20437;-92
2022/12/08 07:35:59;;;;;;;1.47;1.47;;;2.80;97.30;;;;;;5044536;28;20411;-91
2022/12/08 07:38:28;;;;;;;1.30;1.20;;;2.80;97.30;;;;;;5022981;28;20491;-92
2022/12/08 07:41:19;;;;;;;4.90;1.97;;;2.90;97.30;;;;;;5080821;28;20816;-94
2022/12/08 07:44:55;;;;;;;3.33;3.00;;;2.90;97.30;;;;;;5079295;28;20461;-93
2022/12/08 07:47:17;;;;;;;2.07;1.93;;;2.90;97.30;;;;;;5078438;28;20425;-93
2022/12/08 07:49:46;;;;;;;4.13;2.00;;;2.90;97.30;;;;;;5074541;28;20417;-93
2022/12/08 07:53:10;;;;;;;2.23;2.07;;;2.90;97.30;;;;;;5078480;28;20640;-94
2022/12/08 07:56:20;;;;;;;2.20;2.00;;;3.00;97.30;;;;;;5049369;28;20470;-93
2022/12/08 07:59:08;;;;;;;1.43;1.13;;;3.00;97.30;;;;;;4986319;28;20433;-93
2022/12/08 08:01:40;;;;;;;2.57;2.30;;;3.00;97.30;;;;;;5031298;28;20502;-93
2022/12/08 08:04:09;;;;;;;2.33;2.13;;;3.40;97.30;;;;;;5088980;22;20676;-93
2022/12/08 08:10:18;;;;;;;2.23;2.03;;;3.20;97.30;;;;;;5078642;28;20432;-94
2022/12/08 08:15:20;;;;;;;1.93;1.83;;;3.10;97.30;;;;;;5038433;28;20467;-92
2022/12/08 08:17:58;;;;;;;2.73;2.47;;;3.00;97.30;;;;;;5021784;28;20453;-93
2022/12/08 08:20:59;;;;;;;1.70;1.60;;;3.00;97.30;;;;;;5021291;28;21088;-93
2022/12/08 08:23:39;;;;;;;2.70;1.93;;;3.00;97.30;;;;;;5015916;28;20855;-93
2022/12/08 08:29:39;;;;;;;2.60;1.83;;;2.90;97.30;;;;;;4948548;28;20422;-93
2022/12/08 08:32:40;;;;;;;6.30;2.03;;;3.00;97.30;;;;;;5021909;28;20441;-95
2022/12/08 08:35:49;;;;;;;1.80;1.70;;;3.00;97.30;;;;;;4989831;28;20423;-93
2022/12/08 11:02:00;;;;;;;3.10;2.90;;;5.10;97.30;;;;;;5043935;28;20474;-93
2022/12/08 11:05:17;;;;;;;2.33;1.57;;;5.10;97.30;;;;;;5042989;28;20492;-92
2022/12/08 11:10:48;;;;;;;3.43;2.23;;;5.10;97.30;;;;;;5042497;28;20933;-92
2022/12/08 11:13:26;;;;;;;1.73;1.63;;;5.20;97.30;;;;;;5027853;28;20442;-90
2022/12/08 11:15:56;;;;;;;4.70;2.93;;;5.20;97.30;;;;;;5037925;28;20211;-92
2022/12/08 11:18:45;;;;;;;2.40;1.67;;;5.20;97.30;;;;;;5018253;28;20407;-91
2022/12/08 11:21:18;;;;;;;1.43;1.40;;;5.20;97.30;;;;;;5035278;28;20418;-91
2022/12/08 11:23:49;;;;;;;3.67;2.00;;;5.20;97.30;;;;;;5038244;28;20465;-91
2022/12/08 11:26:31;;;;;;;2.57;2.30;;;5.30;97.30;;;;;;5037895;28;20413;-92
2022/12/08 11:28:57;;;;;;;2.83;2.00;;;5.40;97.30;;;;;;5037638;28;20448;-92
2022/12/08 11:31:33;;;;;;;2.10;1.80;;;5.50;97.30;;;;;;5036813;28;20418;-91
2022/12/08 11:34:00;;;;;;;3.03;2.00;;;5.60;97.30;;;;;;5036947;28;20477;-91
2022/12/08 11:36:29;;;;;;;2.93;1.93;;;5.80;97.30;;;;;;5029404;28;20419;-91
2022/12/08 11:38:58;;;;;;;1.20;1.10;;;6.00;97.30;;;;;;5033222;28;20793;-90
2022/12/08 11:41:29;;;;;;;3.23;3.03;;;6.20;97.30;;;;;;5036340;28;20417;-92
2022/12/08 11:44:01;;;;;;;1.47;1.37;;;6.30;97.30;;;;;;5033348;28;20454;-91
2022/12/08 11:46:35;;;;;;;2.13;1.83;;;6.20;97.30;;;;;;5037366;28;20418;-91
2022/12/08 11:49:04;;;;;;;2.93;2.50;;;6.20;97.30;;;;;;5037535;28;20487;-91
2022/12/08 11:51:49;;;;;;;1.57;1.47;;;6.20;97.30;;;;;;5037016;28;20993;-91
2022/12/08 11:54:17;;;;;;;4.20;1.87;;;6.20;97.30;;;;;;5035442;28;20519;-90
2022/12/08 11:56:56;;;;;;;2.83;2.63;;;6.10;97.30;;;;;;5037430;28;20419;-91
2022/12/08 11:59:53;;;;;;;2.60;2.40;;;6.10;97.30;;;;;;5037314;28;20433;-91
2022/12/08 12:02:33;;;;;;;3.57;2.10;;;6.10;97.30;;;;;;5045465;28;20434;-91
2022/12/08 12:05:30;;;;;;;1.40;1.30;;;6.00;97.30;;;;;;5033616;28;20535;-92
2022/12/08 12:08:23;;;;;;;4.50;2.97;;;5.90;97.30;;;;;;5028470;28;20459;-91
2022/12/08 12:11:01;;;;;;;4.00;2.70;;;5.80;97.30;;;;;;5031040;28;20485;-88
2022/12/08 12:13:51;;;;;;;6.43;3.60;;;5.80;97.30;;;;;;5032181;28;20468;-90
2022/12/08 12:16:39;;;;;;;2.23;2.03;;;5.70;97.30;;;;;;5030780;28;20502;-93
2022/12/08 12:19:15;;;;;;;1.27;1.17;;;5.70;97.30;;;;;;5031637;28;20445;-89
2022/12/08 12:21:44;;;;;;;2.13;1.97;;;5.70;97.30;;;;;;5032857;28;20943;-91
2022/12/08 12:24:21;;;;;;;2.90;2.70;;;5.60;97.30;;;;;;5033495;28;21082;-90
2022/12/08 12:27:13;;;;;;;1.23;1.13;;;5.60;97.30;;;;;;5031413;28;20410;-92
2022/12/08 12:29:45;;;;;;;1.33;1.23;;;5.60;97.30;;;;;;5031942;28;20426;-91
2022/12/08 12:32:12;;;;;;;7.20;1.50;;;5.60;97.30;;;;;;5033346;28;20414;-90
2022/12/08 12:34:48;;;;;;;1.20;1.10;;;5.50;97.30;;;;;;5036117;28;20449;-91
2022/12/08 12:37:17;;;;;;;1.77;1.73;;;5.50;97.30;;;;;;5026477;28;20485;-88
2022/12/08 12:39:51;;;;;;;1.20;1.10;;;5.50;97.30;;;;;;5034104;28;20415;-88
2022/12/08 12:42:32;;;;;;;4.83;2.17;;;5.50;97.30;;;;;;5031715;28;20445;-88
2022/12/08 12:45:10;;;;;;;6.33;3.03;;;5.40;97.30;;;;;;5032836;28;20544;-88
2022/12/08 12:47:54;;;;;;;3.00;2.80;;;5.40;97.30;;;;;;5018195;28;20423;-89
2022/12/08 12:50:31;;;;;;;1.10;1.00;;;5.40;97.30;;;;;;5024468;28;20446;-88
2022/12/08 12:53:04;;;;;;;1.77;1.60;;;5.40;97.30;;;;;;5023354;28;20449;-89
2022/12/08 12:55:45;;;;;;;5.70;3.37;;;5.30;97.30;;;;;;5022616;28;20811;-87
2022/12/08 12:58:21;;;;;;;2.50;2.13;;;5.30;97.30;;;;;;5040593;28;20441;-89
2022/12/08 13:00:47;;;;;;;1.17;1.10;;;5.30;97.30;;;;;;5031907;28;20473;-88
2022/12/08 13:03:15;;;;;;;5.90;3.07;;;5.30;97.30;;;;;;5024020;28;21025;-89
2022/12/08 13:05:52;;;;;;;1.33;1.23;;;5.20;97.30;;;;;;5031588;28;20436;-88
2022/12/08 13:08:21;;;;;;;4.97;2.03;;;5.20;97.30;;;;;;5034374;28;20418;-87
2022/12/08 13:11:03;;;;;;;3.43;1.90;;;5.20;97.30;;;;;;5033801;28;20414;-89
2022/12/08 13:13:30;;;;;;;3.63;2.53;;;5.20;97.30;;;;;;5033872;28;20442;-90
2022/12/08 13:16:07;;;;;;;1.93;1.80;;;5.20;97.30;;;;;;5033935;28;20410;-87
2022/12/08 13:18:35;;;;;;;1.40;1.30;;;5.20;97.30;;;;;;5021986;28;20427;-87
2022/12/08 13:21:15;;;;;;;7.13;1.83;;;5.20;97.30;;;;;;5027749;28;20410;-88
2022/12/08 13:24:02;;;;;;;4.23;2.10;;;5.20;97.30;;;;;;5025162;28;20465;-87
2022/12/08 13:26:28;;;;;;;1.60;1.50;;;5.20;97.30;;;;;;5022699;28;20860;-88
2022/12/08 13:29:02;;;;;;;1.50;1.40;;;5.20;97.30;;;;;;5033312;28;20411;-91
2022/12/08 13:31:39;;;;;;;2.33;2.13;;;5.20;97.30;;;;;;5031692;28;20187;-90
2022/12/08 13:34:09;;;;;;;1.10;1.00;;;5.20;97.30;;;;;;5027099;28;20445;-91
2022/12/08 13:36:40;;;;;;;2.93;2.10;;;5.20;97.30;;;;;;5031780;28;20949;-92
2022/12/08 13:39:18;;;;;;;2.03;1.90;;;5.20;97.30;;;;;;5020917;28;20543;-90
2022/12/08 13:41:55;;;;;;;3.37;2.97;;;5.20;97.30;;;;;;5034680;28;20441;-90
2022/12/08 13:44:26;;;;;;;3.30;1.67;;;5.20;97.30;;;;;;5031843;28;20459;-89
2022/12/08 13:46:56;;;;;;;1.50;1.40;;;5.20;97.30;;;;;;5049659;28;20422;-91
2022/12/08 13:49:35;;;;;;;1.50;1.40;;;5.20;97.30;;;;;;5033862;28;20425;-91
2022/12/08 13:52:01;;;;;;;3.60;1.77;;;5.20;97.30;;;;;;5034570;28;20422;-91
2022/12/08 13:54:46;;;;;;;2.47;2.27;;;5.10;97.30;;;;;;5034462;28;20435;-91
2022/12/08 13:57:27;;;;;;;6.70;2.77;;;5.10;97.30;;;;;;5034452;28;20418;-90
2022/12/08 13:59:53;;;;;;;2.83;1.53;;;5.10;97.30;;;;;;5027524;28;20470;-91
2022/12/08 14:02:21;;;;;;;2.83;2.33;;;5.10;97.30;;;;;;5033707;28;21203;-92
2022/12/08 14:04:47;;;;;;;3.17;1.50;;;5.10;97.30;;;;;;5032670;28;20259;-90
2022/12/08 14:07:13;;;;;;;2.40;2.20;;;5.10;97.30;;;;;;5038406;28;20924;-92
2022/12/08 14:09:40;;;;;;;4.77;2.03;;;5.10;97.30;;;;;;5062803;23;20585;-86
2022/12/08 14:12:18;;;;;;;3.00;2.80;;;5.10;97.30;;;;;;5071664;28;20168;-86
2022/12/08 14:14:47;;;;;;;4.73;1.47;;;5.10;97.30;;;;;;5060330;28;20510;-89
2022/12/08 14:17:16;;;;;;;2.37;2.10;;;5.00;97.30;;;;;;5068570;28;20458;-90
2022/12/08 14:19:44;;;;;;;2.23;1.90;;;5.00;97.30;;;;;;5028945;28;20435;-91
2022/12/08 14:22:16;;;;;;;2.17;2.00;;;5.00;97.30;;;;;;5029588;28;20793;-87
2022/12/08 14:24:47;;;;;;;3.93;2.50;;;5.00;97.30;;;;;;5020411;28;20455;-88
2022/12/08 14:27:17;;;;;;;1.93;1.87;;;5.00;97.30;;;;;;5032081;28;20427;-88
2022/12/08 14:29:58;;;;;;;1.30;1.30;;;5.00;97.30;;;;;;5036681;28;20493;-88
2022/12/08 14:32:23;;;;;;;3.00;1.93;;;4.90;97.30;;;;;;5036569;28;20889;-88
2022/12/08 14:35:26;;;;;;;6.27;1.77;;;4.90;97.30;;;;;;5029386;28;20514;-88
2022/12/08 14:37:56;;;;;;;1.77;1.63;;;4.90;97.30;;;;;;5026703;28;20188;-88
2022/12/08 14:40:27;;;;;;;1.37;1.37;;;4.90;97.30;;;;;;5018136;28;20423;-89
2022/12/08 14:43:07;;;;;;;1.33;1.10;;;4.80;97.30;;;;;;5017703;28;20506;-91
2022/12/08 14:45:44;;;;;;;1.63;1.33;;;4.80;97.30;;;;;;5032532;28;20462;-88
2022/12/08 14:48:35;;;;;;;3.63;2.07;;;4.80;97.30;;;;;;5028601;28;20524;-87
2022/12/08 14:51:22;;;;;;;2.40;2.20;;;4.80;97.30;;;;;;5038546;28;20828;-90
2022/12/08 14:53:54;;;;;;;1.60;1.40;;;4.80;97.30;;;;;;5056154;28;20938;-88
2022/12/08 14:56:32;;;;;;;2.77;1.70;;;4.70;97.30;;;;;;5036162;28;20425;-89
2022/12/08 14:59:21;;;;;;;2.10;1.97;;;4.70;97.30;;;;;;5023501;28;20466;-87
2022/12/08 15:01:50;;;;;;;7.30;2.90;;;4.70;97.30;;;;;;5017564;28;20505;-87
2022/12/08 15:04:24;;;;;;;2.70;1.90;;;4.60;97.30;;;;;;5040149;28;20549;-90
2022/12/08 15:07:05;;;;;;;2.17;2.00;;;4.60;97.30;;;;;;5053455;28;20980;-91
2022/12/08 15:09:34;;;;;;;1.27;1.17;;;4.60;97.30;;;;;;5028731;28;20478;-90
2022/12/08 15:12:24;;;;;;;3.10;2.33;;;4.60;97.30;;;;;;5024358;28;20430;-90
2022/12/08 15:14:55;;;;;;;2.70;1.73;;;4.60;97.30;;;;;;5024746;28;20513;-88
2022/12/08 15:17:47;;;;;;;1.10;1.00;;;4.50;97.30;;;;;;5030568;28;20414;-88
2022/12/08 15:20:45;;;;;;;1.30;1.20;;;4.50;97.30;;;;;;5029611;28;20430;-88
2022/12/08 15:23:18;;;;;;;2.00;1.53;;;4.50;97.30;;;;;;5021354;28;20443;-90
2022/12/08 15:25:43;;;;;;;10.47;1.83;;;4.50;97.30;;;;;;5028483;28;20637;-87
2022/12/08 15:28:13;;;;;;;2.60;2.33;;;4.50;97.30;;;;;;5031869;28;20818;-86
2022/12/08 15:30:38;;;;;;;1.73;1.67;;;4.50;97.30;;;;;;5026303;28;20187;-86
2022/12/08 15:33:04;;;;;;;2.27;2.07;;;4.50;97.30;;;;;;5030489;28;20944;-88
2022/12/08 15:35:29;;;;;;;5.13;1.80;;;4.50;97.30;;;;;;5034708;28;20187;-87
2022/12/08 15:37:55;;;;;;;4.00;1.83;;;4.50;97.30;;;;;;5027489;28;20176;-90
2022/12/08 15:40:27;;;;;;;2.23;2.07;;;4.50;97.30;;;;;;5028489;28;20235;-91
2022/12/08 15:42:53;;;;;;;1.80;1.70;;;4.40;97.30;;;;;;5041656;28;20650;-91
2022/12/08 15:45:26;;;;;;;14.80;4.30;;;4.40;97.30;;;;;;5029745;28;20464;-90
2022/12/08 15:47:51;;;;;;;3.67;2.40;;;4.40;97.30;;;;;;5030072;28;20474;-87
2022/12/08 15:50:20;;;;;;;1.33;1.23;;;4.40;97.30;;;;;;5026649;28;20447;-90
2022/12/08 15:52:45;;;;;;;3.40;3.20;;;4.40;97.30;;;;;;5024866;28;20696;-89
2022/12/08 15:55:16;;;;;;;3.07;2.87;;;4.40;97.30;;;;;;5033842;28;20434;-88
2022/12/08 15:57:48;;;;;;;15.83;2.97;;;4.40;97.30;;;;;;5033140;28;20187;-87
2022/12/08 16:00:27;;;;;;;1.50;1.40;;;4.40;97.30;;;;;;5050703;28;20709;-88
2022/12/08 16:02:54;;;;;;;3.60;2.70;;;4.40;97.30;;;;;;5030706;28;20512;-89
2022/12/08 16:05:20;;;;;;;2.50;2.30;;;4.40;97.30;;;;;;5034520;28;20458;-89
2022/12/08 16:07:46;;;;;;;2.50;2.33;;;4.40;97.30;;;;;;5045339;28;20926;-88
2022/12/08 16:10:21;;;;;;;2.07;1.60;;;4.40;97.30;;;;;;5023549;28;20434;-90
2022/12/08 16:15:35;;;;;;;2.00;1.87;;;4.40;97.30;;;;;;5049429;28;20421;-90
2022/12/08 16:18:01;;;;;;;1.53;1.43;;;4.40;97.30;;;;;;5024346;28;20931;-89
2022/12/08 16:20:26;;;;;;;1.70;1.60;;;4.30;97.30;;;;;;5062502;28;20417;-89
2022/12/08 16:22:52;;;;;;;3.87;2.67;;;4.20;97.30;;;;;;5033795;28;20230;-89
2022/12/08 16:25:18;;;;;;;0.90;0.80;;;4.10;97.30;;;;;;5019196;28;20204;-90
2022/12/08 16:27:44;;;;;;;4.27;2.73;;;4.00;97.30;;;;;;5014123;28;20185;-89
2022/12/08 16:30:15;;;;;;;1.20;1.10;;;3.80;97.30;;;;;;5029216;28;20993;-89
2022/12/08 16:32:40;;;;;;;1.60;0.90;;;3.60;97.30;;;;;;5025134;28;20431;-90
2022/12/08 16:35:07;;;;;;;1.60;1.50;;;3.40;97.30;;;;;;5033040;28;20458;-88
2022/12/08 16:37:40;;;;;;;2.07;1.93;;;3.30;97.30;;;;;;5047854;28;20245;-90